N216TB TNCM-TIST
Flight info
| Callsign | N216TB |
|---|---|
| Flight time | 0h 47m |
| Altitude | 10000 |
| Route | DCT LARPP DCT NOMUE DCT KUTHO DCT JAQYY DCT |
| Aircraft | K100/L-L/C |
Departure
| Time | 2026-04-24 23:22 |
|---|---|
| Airport | Princess Juliana International Airport (TNCM) |
Arrival
| Time | 2026-04-25 00:10 |
|---|---|
| Airport | Cyril E. King Airport (TIST) |
| Time | Latitude | Longitude | Altitude | Speed | Heading |
|---|---|---|---|---|---|
| 2026-04-24 23:05 | 18.04177 | -63.11239 | 17 ft | 0 kts | 171° |
| 2026-04-24 23:19 | 18.04168 | -63.11236 | 17 ft | 5 kts | 167° |
| 2026-04-24 23:19 | 18.04134 | -63.11272 | 17 ft | 11 kts | 254° |
| 2026-04-24 23:19 | 18.04111 | -63.11290 | 17 ft | 0 kts | 172° |
| 2026-04-24 23:21 | 18.04085 | -63.11288 | 17 ft | 9 kts | 176° |
| 2026-04-24 23:21 | 18.04045 | -63.11230 | 17 ft | 11 kts | 83° |
| 2026-04-24 23:22 | 18.04046 | -63.11222 | 17 ft | 0 kts | 81° |
| 2026-04-24 23:22 | 18.04083 | -63.10941 | 17 ft | 83 kts | 82° |
| 2026-04-24 23:22 | 18.04155 | -63.10210 | 335 ft | 111 kts | 88° |
| 2026-04-24 23:22 | 18.03765 | -63.09509 | 800 ft | 126 kts | 153° |
| 2026-04-24 23:23 | 18.02876 | -63.09299 | 1243 ft | 134 kts | 166° |
| 2026-04-24 23:23 | 18.01942 | -63.09098 | 1686 ft | 141 kts | 166° |
| 2026-04-24 23:23 | 18.00969 | -63.08889 | 2126 ft | 144 kts | 164° |
| 2026-04-24 23:23 | 17.99984 | -63.08819 | 2567 ft | 149 kts | 194° |
| 2026-04-24 23:24 | 17.99229 | -63.09553 | 3018 ft | 155 kts | 250° |
| 2026-04-24 23:24 | 17.99221 | -63.10668 | 3464 ft | 154 kts | 280° |
| 2026-04-24 23:24 | 17.99388 | -63.11784 | 3902 ft | 155 kts | 279° |
| 2026-04-24 23:24 | 17.99550 | -63.12910 | 4342 ft | 155 kts | 281° |
| 2026-04-24 23:25 | 18.00074 | -63.13854 | 4790 ft | 151 kts | 320° |
| 2026-04-24 23:25 | 18.00880 | -63.14569 | 5226 ft | 152 kts | 321° |
| 2026-04-24 23:25 | 18.01684 | -63.15287 | 5666 ft | 152 kts | 321° |
| 2026-04-24 23:25 | 18.02351 | -63.15878 | 6026 ft | 152 kts | 321° |
| 2026-04-24 23:26 | 18.02682 | -63.16170 | 6208 ft | 152 kts | 321° |
| 2026-04-24 23:26 | 18.03497 | -63.16882 | 6635 ft | 152 kts | 321° |
| 2026-04-24 23:26 | 18.04315 | -63.17588 | 7051 ft | 152 kts | 321° |
| 2026-04-24 23:26 | 18.05049 | -63.18387 | 7484 ft | 152 kts | 306° |
| 2026-04-24 23:27 | 18.05483 | -63.19382 | 7897 ft | 150 kts | 282° |
| 2026-04-24 23:27 | 18.05681 | -63.20454 | 8331 ft | 149 kts | 279° |
| 2026-04-24 23:27 | 18.05866 | -63.21526 | 8771 ft | 149 kts | 278° |
| 2026-04-24 23:27 | 18.06044 | -63.22592 | 9213 ft | 147 kts | 278° |
| 2026-04-24 23:28 | 18.06217 | -63.23635 | 9657 ft | 146 kts | 278° |
| 2026-04-24 23:28 | 18.06393 | -63.24693 | 10011 ft | 152 kts | 278° |
| 2026-04-24 23:28 | 18.06591 | -63.25866 | 10019 ft | 171 kts | 278° |
| 2026-04-24 23:28 | 18.06802 | -63.27134 | 10026 ft | 180 kts | 278° |
| 2026-04-24 23:29 | 18.07018 | -63.28442 | 10026 ft | 183 kts | 278° |
| 2026-04-24 23:29 | 18.07238 | -63.29771 | 10024 ft | 185 kts | 278° |
| 2026-04-24 23:29 | 18.07458 | -63.31102 | 10029 ft | 185 kts | 278° |
| 2026-04-24 23:29 | 18.07680 | -63.32439 | 10029 ft | 186 kts | 278° |
| 2026-04-24 23:30 | 18.07902 | -63.33776 | 10023 ft | 186 kts | 278° |
| 2026-04-24 23:30 | 18.08120 | -63.35095 | 10026 ft | 186 kts | 279° |
| 2026-04-24 23:30 | 18.08343 | -63.36434 | 10026 ft | 186 kts | 278° |
| 2026-04-24 23:30 | 18.08564 | -63.37772 | 10021 ft | 186 kts | 278° |
| 2026-04-24 23:31 | 18.08786 | -63.39112 | 10022 ft | 186 kts | 278° |
| 2026-04-24 23:31 | 18.09008 | -63.40456 | 10025 ft | 187 kts | 278° |
| 2026-04-24 23:31 | 18.09231 | -63.41799 | 10022 ft | 187 kts | 278° |
| 2026-04-24 23:31 | 18.09453 | -63.43142 | 10022 ft | 187 kts | 278° |
| 2026-04-24 23:32 | 18.09675 | -63.44486 | 10022 ft | 187 kts | 278° |
| 2026-04-24 23:32 | 18.09893 | -63.45810 | 10022 ft | 186 kts | 278° |
| 2026-04-24 23:32 | 18.10116 | -63.47152 | 10020 ft | 186 kts | 278° |
| 2026-04-24 23:32 | 18.10338 | -63.48494 | 10019 ft | 186 kts | 278° |
| 2026-04-24 23:33 | 18.10559 | -63.49834 | 10018 ft | 186 kts | 278° |
| 2026-04-24 23:33 | 18.10779 | -63.51174 | 10014 ft | 186 kts | 278° |
| 2026-04-24 23:33 | 18.11001 | -63.52518 | 10022 ft | 187 kts | 278° |
| 2026-04-24 23:33 | 18.11222 | -63.53861 | 10023 ft | 187 kts | 278° |
| 2026-04-24 23:34 | 18.11444 | -63.55207 | 10016 ft | 187 kts | 278° |
| 2026-04-24 23:34 | 18.11666 | -63.56553 | 10020 ft | 187 kts | 278° |
| 2026-04-24 23:34 | 18.11885 | -63.57882 | 10023 ft | 187 kts | 278° |
| 2026-04-24 23:34 | 18.12106 | -63.59229 | 10017 ft | 187 kts | 278° |
| 2026-04-24 23:35 | 18.12327 | -63.60578 | 10020 ft | 187 kts | 278° |
| 2026-04-24 23:35 | 18.12549 | -63.61926 | 10023 ft | 187 kts | 278° |
| 2026-04-24 23:35 | 18.12770 | -63.63275 | 10023 ft | 187 kts | 278° |
| 2026-04-24 23:35 | 18.12991 | -63.64622 | 10026 ft | 187 kts | 278° |
| 2026-04-24 23:36 | 18.13213 | -63.65970 | 10017 ft | 187 kts | 278° |
| 2026-04-24 23:36 | 18.13431 | -63.67297 | 10023 ft | 187 kts | 278° |
| 2026-04-24 23:36 | 18.13651 | -63.68640 | 10024 ft | 187 kts | 278° |
| 2026-04-24 23:36 | 18.13871 | -63.69987 | 10023 ft | 187 kts | 278° |
| 2026-04-24 23:37 | 18.14093 | -63.71332 | 10019 ft | 187 kts | 278° |
| 2026-04-24 23:37 | 18.14313 | -63.72680 | 10028 ft | 187 kts | 278° |
| 2026-04-24 23:37 | 18.14753 | -63.75373 | 10025 ft | 187 kts | 278° |
| 2026-04-24 23:38 | 18.14973 | -63.76718 | 10027 ft | 187 kts | 278° |
| 2026-04-24 23:38 | 18.15194 | -63.78064 | 10027 ft | 187 kts | 278° |
| 2026-04-24 23:38 | 18.15414 | -63.79412 | 10026 ft | 187 kts | 278° |
| 2026-04-24 23:38 | 18.15631 | -63.80740 | 10023 ft | 187 kts | 278° |
| 2026-04-24 23:39 | 18.15850 | -63.82086 | 10021 ft | 187 kts | 278° |
| 2026-04-24 23:39 | 18.16070 | -63.83432 | 10028 ft | 187 kts | 278° |
| 2026-04-24 23:39 | 18.16290 | -63.84780 | 10030 ft | 187 kts | 278° |
| 2026-04-24 23:39 | 18.16509 | -63.86129 | 10026 ft | 187 kts | 278° |
| 2026-04-24 23:40 | 18.16730 | -63.87478 | 10031 ft | 187 kts | 278° |
| 2026-04-24 23:40 | 18.16949 | -63.88823 | 10029 ft | 187 kts | 278° |
| 2026-04-24 23:40 | 18.17168 | -63.90172 | 10030 ft | 187 kts | 278° |
| 2026-04-24 23:40 | 18.17385 | -63.91501 | 10032 ft | 187 kts | 278° |
| 2026-04-24 23:41 | 18.17604 | -63.92850 | 10027 ft | 187 kts | 278° |
| 2026-04-24 23:41 | 18.17823 | -63.94198 | 10036 ft | 187 kts | 278° |
| 2026-04-24 23:41 | 18.18043 | -63.95550 | 10033 ft | 188 kts | 278° |
| 2026-04-24 23:41 | 18.18262 | -63.96902 | 10035 ft | 188 kts | 278° |
| 2026-04-24 23:42 | 18.18482 | -63.98255 | 10028 ft | 188 kts | 278° |
| 2026-04-24 23:42 | 18.18702 | -63.99605 | 10032 ft | 188 kts | 278° |
| 2026-04-24 23:42 | 18.18921 | -64.00958 | 10035 ft | 187 kts | 278° |
| 2026-04-24 23:42 | 18.19137 | -64.02289 | 10034 ft | 187 kts | 278° |
| 2026-04-24 23:43 | 18.19355 | -64.03636 | 10032 ft | 187 kts | 278° |
| 2026-04-24 23:43 | 18.19573 | -64.04987 | 10032 ft | 187 kts | 278° |
| 2026-04-24 23:43 | 18.19792 | -64.06337 | 10031 ft | 187 kts | 278° |
| 2026-04-24 23:43 | 18.20011 | -64.07687 | 10031 ft | 187 kts | 278° |
| 2026-04-24 23:44 | 18.20229 | -64.09037 | 10026 ft | 187 kts | 278° |
| 2026-04-24 23:44 | 18.20446 | -64.10384 | 10030 ft | 187 kts | 278° |
| 2026-04-24 23:44 | 18.20581 | -64.11737 | 10029 ft | 186 kts | 271° |
| 2026-04-24 23:44 | 18.20649 | -64.13093 | 10029 ft | 186 kts | 272° |
| 2026-04-24 23:45 | 18.20727 | -64.14433 | 10020 ft | 186 kts | 272° |
| 2026-04-24 23:45 | 18.20805 | -64.15790 | 10026 ft | 186 kts | 272° |
| 2026-04-24 23:45 | 18.20882 | -64.17149 | 10026 ft | 186 kts | 272° |
| 2026-04-24 23:45 | 18.20958 | -64.18505 | 10024 ft | 186 kts | 272° |
| 2026-04-24 23:46 | 18.21034 | -64.19865 | 10023 ft | 186 kts | 272° |
| 2026-04-24 23:46 | 18.21111 | -64.21225 | 10024 ft | 187 kts | 272° |
| 2026-04-24 23:46 | 18.21187 | -64.22587 | 10024 ft | 187 kts | 272° |
| 2026-04-24 23:46 | 18.21263 | -64.23949 | 10024 ft | 186 kts | 272° |
| 2026-04-24 23:47 | 18.21340 | -64.25309 | 10023 ft | 186 kts | 272° |
| 2026-04-24 23:47 | 18.21416 | -64.26669 | 10023 ft | 186 kts | 272° |
| 2026-04-24 23:47 | 18.21491 | -64.28010 | 10020 ft | 186 kts | 272° |
| 2026-04-24 23:47 | 18.21566 | -64.29370 | 10019 ft | 186 kts | 272° |
| 2026-04-24 23:48 | 18.21642 | -64.30733 | 10020 ft | 186 kts | 272° |
| 2026-04-24 23:48 | 18.21717 | -64.32095 | 10021 ft | 187 kts | 272° |
| 2026-04-24 23:48 | 18.21793 | -64.33457 | 10017 ft | 186 kts | 272° |
| 2026-04-24 23:48 | 18.21869 | -64.34817 | 10020 ft | 186 kts | 271° |
| 2026-04-24 23:49 | 18.21944 | -64.36177 | 10019 ft | 186 kts | 272° |
| 2026-04-24 23:49 | 18.22019 | -64.37536 | 10020 ft | 186 kts | 272° |
| 2026-04-24 23:49 | 18.22095 | -64.38896 | 10010 ft | 186 kts | 272° |
| 2026-04-24 23:49 | 18.22169 | -64.40235 | 10021 ft | 186 kts | 272° |
| 2026-04-24 23:50 | 18.22244 | -64.41592 | 10020 ft | 186 kts | 272° |
| 2026-04-24 23:50 | 18.22318 | -64.42948 | 10024 ft | 186 kts | 272° |
| 2026-04-24 23:50 | 18.22393 | -64.44306 | 10020 ft | 186 kts | 271° |
| 2026-04-24 23:50 | 18.22467 | -64.45659 | 10023 ft | 186 kts | 272° |
| 2026-04-24 23:51 | 18.22542 | -64.47015 | 10014 ft | 185 kts | 272° |
| 2026-04-24 23:51 | 18.22616 | -64.48368 | 10020 ft | 185 kts | 272° |
| 2026-04-24 23:51 | 18.22690 | -64.49720 | 10019 ft | 185 kts | 272° |
| 2026-04-24 23:51 | 18.22763 | -64.51054 | 10019 ft | 185 kts | 271° |
| 2026-04-24 23:52 | 18.22835 | -64.52405 | 10020 ft | 185 kts | 272° |
| 2026-04-24 23:52 | 18.22910 | -64.53776 | 9794 ft | 191 kts | 272° |
| 2026-04-24 23:52 | 18.22987 | -64.55150 | 9407 ft | 186 kts | 272° |
| 2026-04-24 23:52 | 18.23060 | -64.56499 | 9024 ft | 184 kts | 272° |
| 2026-04-24 23:53 | 18.23132 | -64.57841 | 8650 ft | 183 kts | 272° |
| 2026-04-24 23:53 | 18.23205 | -64.59177 | 8282 ft | 183 kts | 272° |
| 2026-04-24 23:53 | 18.23277 | -64.60514 | 7918 ft | 183 kts | 272° |
| 2026-04-24 23:53 | 18.23349 | -64.61850 | 7559 ft | 183 kts | 272° |
| 2026-04-24 23:54 | 18.23420 | -64.63169 | 7209 ft | 183 kts | 272° |
| 2026-04-24 23:54 | 18.23493 | -64.64506 | 6852 ft | 183 kts | 272° |
| 2026-04-24 23:54 | 18.23565 | -64.65846 | 6506 ft | 183 kts | 272° |
| 2026-04-24 23:54 | 18.23636 | -64.67185 | 6149 ft | 184 kts | 272° |
| 2026-04-24 23:55 | 18.23709 | -64.68529 | 5777 ft | 184 kts | 272° |
| 2026-04-24 23:55 | 18.23782 | -64.69876 | 5412 ft | 185 kts | 272° |
| 2026-04-24 23:55 | 18.23854 | -64.71227 | 5051 ft | 185 kts | 272° |
| 2026-04-24 23:55 | 18.23925 | -64.72579 | 4695 ft | 185 kts | 272° |
| 2026-04-24 23:56 | 18.23997 | -64.73916 | 4332 ft | 186 kts | 272° |
| 2026-04-24 23:56 | 18.24070 | -64.75272 | 3966 ft | 186 kts | 272° |
| 2026-04-24 23:56 | 18.24141 | -64.76634 | 3604 ft | 185 kts | 272° |
| 2026-04-24 23:56 | 18.24213 | -64.77990 | 3247 ft | 186 kts | 272° |
| 2026-04-24 23:57 | 18.24287 | -64.79343 | 3025 ft | 180 kts | 272° |
| 2026-04-24 23:57 | 18.24353 | -64.80618 | 3015 ft | 171 kts | 272° |
| 2026-04-24 23:57 | 18.24417 | -64.81840 | 2997 ft | 164 kts | 272° |
| 2026-04-24 23:57 | 18.24479 | -64.83018 | 2994 ft | 159 kts | 272° |
| 2026-04-24 23:58 | 18.24541 | -64.84169 | 2993 ft | 157 kts | 272° |
| 2026-04-24 23:58 | 18.24601 | -64.85300 | 2987 ft | 155 kts | 272° |
| 2026-04-24 23:58 | 18.24661 | -64.86429 | 2992 ft | 155 kts | 272° |
| 2026-04-24 23:58 | 18.24720 | -64.87560 | 2993 ft | 155 kts | 272° |
| 2026-04-24 23:59 | 18.24779 | -64.88687 | 2993 ft | 154 kts | 273° |
| 2026-04-24 23:59 | 18.24838 | -64.89805 | 2989 ft | 153 kts | 272° |
| 2026-04-24 23:59 | 18.24897 | -64.90924 | 2991 ft | 154 kts | 273° |
| 2026-04-24 23:59 | 18.24957 | -64.92049 | 2984 ft | 153 kts | 272° |
| 2026-04-25 00:00 | 18.25014 | -64.93167 | 2982 ft | 154 kts | 272° |
| 2026-04-25 00:00 | 18.25074 | -64.94279 | 2989 ft | 156 kts | 272° |
| 2026-04-25 00:00 | 18.25134 | -64.95422 | 2987 ft | 157 kts | 272° |
| 2026-04-25 00:00 | 18.25194 | -64.96575 | 2991 ft | 159 kts | 272° |
| 2026-04-25 00:01 | 18.25254 | -64.97740 | 2988 ft | 159 kts | 273° |
| 2026-04-25 00:01 | 18.25314 | -64.98892 | 2997 ft | 157 kts | 273° |
| 2026-04-25 00:01 | 18.25376 | -65.00050 | 2992 ft | 159 kts | 272° |
| 2026-04-25 00:01 | 18.25435 | -65.01203 | 2997 ft | 157 kts | 272° |
| 2026-04-25 00:02 | 18.25494 | -65.02350 | 2991 ft | 157 kts | 272° |
| 2026-04-25 00:02 | 18.25554 | -65.03503 | 2994 ft | 159 kts | 272° |
| 2026-04-25 00:02 | 18.25613 | -65.04645 | 2989 ft | 157 kts | 272° |
| 2026-04-25 00:02 | 18.25671 | -65.05791 | 2987 ft | 156 kts | 272° |
| 2026-04-25 00:03 | 18.25779 | -65.06920 | 2932 ft | 157 kts | 286° |
| 2026-04-25 00:03 | 18.26334 | -65.07949 | 2697 ft | 167 kts | 306° |
| 2026-04-25 00:03 | 18.27000 | -65.08955 | 2595 ft | 165 kts | 305° |
| 2026-04-25 00:03 | 18.27629 | -65.09938 | 2500 ft | 163 kts | 305° |
| 2026-04-25 00:04 | 18.28272 | -65.10935 | 2310 ft | 166 kts | 306° |
| 2026-04-25 00:04 | 18.28979 | -65.11885 | 2116 ft | 165 kts | 322° |
| 2026-04-25 00:04 | 18.29967 | -65.12418 | 2095 ft | 155 kts | 348° |
| 2026-04-25 00:04 | 18.30995 | -65.12484 | 2094 ft | 148 kts | 12° |
| 2026-04-25 00:05 | 18.31944 | -65.12125 | 2098 ft | 144 kts | 39° |
| 2026-04-25 00:05 | 18.32558 | -65.11340 | 2095 ft | 139 kts | 58° |
| 2026-04-25 00:05 | 18.32939 | -65.10442 | 2100 ft | 129 kts | 78° |
| 2026-04-25 00:05 | 18.33047 | -65.09550 | 2055 ft | 120 kts | 83° |
| 2026-04-25 00:06 | 18.33126 | -65.08674 | 1909 ft | 120 kts | 87° |
| 2026-04-25 00:06 | 18.33184 | -65.07840 | 1753 ft | 103 kts | 87° |
| 2026-04-25 00:06 | 18.33232 | -65.07168 | 1639 ft | 93 kts | 88° |
| 2026-04-25 00:06 | 18.33265 | -65.06467 | 1515 ft | 96 kts | 90° |
| 2026-04-25 00:07 | 18.33299 | -65.05818 | 1390 ft | 85 kts | 88° |
| 2026-04-25 00:07 | 18.33334 | -65.05198 | 1284 ft | 90 kts | 89° |
| 2026-04-25 00:07 | 18.33358 | -65.04501 | 1164 ft | 101 kts | 86° |
| 2026-04-25 00:07 | 18.33399 | -65.03762 | 1023 ft | 96 kts | 88° |
| 2026-04-25 00:08 | 18.33434 | -65.03110 | 913 ft | 86 kts | 85° |
| 2026-04-25 00:08 | 18.33465 | -65.02487 | 806 ft | 84 kts | 90° |
| 2026-04-25 00:08 | 18.33494 | -65.01899 | 707 ft | 81 kts | 89° |
| 2026-04-25 00:08 | 18.33526 | -65.01316 | 602 ft | 81 kts | 90° |
| 2026-04-25 00:09 | 18.33553 | -65.00741 | 511 ft | 79 kts | 88° |
| 2026-04-25 00:09 | 18.33580 | -65.00144 | 402 ft | 85 kts | 90° |
| 2026-04-25 00:09 | 18.33609 | -64.99509 | 294 ft | 87 kts | 87° |
| 2026-04-25 00:09 | 18.33641 | -64.98873 | 165 ft | 84 kts | 84° |
| 2026-04-25 00:10 | 18.33693 | -64.98283 | 60 ft | 77 kts | 85° |
| 2026-04-25 00:10 | 18.33723 | -64.97766 | 24 ft | 63 kts | 88° |
| 2026-04-25 00:10 | 18.33733 | -64.97368 | 22 ft | 48 kts | 88° |
| 2026-04-25 00:10 | 18.33744 | -64.97043 | 19 ft | 41 kts | 88° |
| 2026-04-25 00:11 | 18.33751 | -64.96785 | 13 ft | 9 kts | 91° |
| 2026-04-25 00:11 | 18.33762 | -64.96713 | 13 ft | 4 kts | 61° |
| 2026-04-25 00:11 | 18.33770 | -64.96697 | 13 ft | 0 kts | 54° |
| 2026-04-25 00:11 | 18.33774 | -64.96692 | 13 ft | 4 kts | 49° |
| 2026-04-25 00:12 | 18.33815 | -64.96686 | 13 ft | 8 kts | 352° |
| 2026-04-25 00:12 | 18.33847 | -64.96688 | 14 ft | 7 kts | 356° |
| 2026-04-25 00:12 | 18.33884 | -64.96690 | 14 ft | 6 kts | 358° |
| 2026-04-25 00:12 | 18.33909 | -64.96707 | 14 ft | 0 kts | 284° |
| 2026-04-25 00:13 | 18.33911 | -64.96715 | 14 ft | 4 kts | 284° |
| 2026-04-25 00:13 | 18.33911 | -64.96743 | 15 ft | 4 kts | 255° |
| 2026-04-25 00:13 | 18.33890 | -64.96766 | 15 ft | 0 kts | 185° |